Time;durP1;ratioP1;P1;durP2;ratioP2;P2;SDS_P1;SDS_P2;PMS_P1;PMS_P2;Temp;Humidity;BMP_temperature;BMP_pressure;BME280_temperature;BME280_humidity;BME280_pressure;Samples;Min_cycle;Max_cycle;Signal;HPM_P1;HPM_P2
2023/01/31 00:00:49;;;;;;;;;;;3.00;99.90;;;;;;4988923;28;19960;-77
2023/01/31 00:03:15;;;;;;;;;;;3.00;99.90;;;;;;4986168;28;20540;-76
2023/01/31 00:05:42;;;;;;;;;;;3.00;99.90;;;;;;4990030;28;19984;-76
2023/01/31 00:08:08;;;;;;;;;;;3.00;99.90;;;;;;4985898;28;19938;-76
2023/01/31 00:10:36;;;;;;;;;;;3.00;99.90;;;;;;4994895;28;19936;-76
2023/01/31 00:13:03;;;;;;;;;;;3.00;99.90;;;;;;4993840;28;19930;-76
2023/01/31 00:15:29;;;;;;;;;;;3.00;99.90;;;;;;4990106;28;19945;-78
2023/01/31 00:17:56;;;;;;;;;;;3.00;99.90;;;;;;4986734;28;19929;-76
2023/01/31 00:20:22;;;;;;;;;;;3.00;99.80;;;;;;4989184;28;19930;-76
2023/01/31 00:22:49;;;;;;;;;;;3.00;99.80;;;;;;4993181;28;19929;-76
2023/01/31 00:25:16;;;;;;;;;;;3.00;99.80;;;;;;4985872;28;20019;-77
2023/01/31 00:27:43;;;;;;;;;;;3.00;99.80;;;;;;4987777;28;20688;-76
2023/01/31 00:30:10;;;;;;;;;;;3.00;99.90;;;;;;4988866;28;19944;-77
2023/01/31 00:32:37;;;;;;;;;;;3.00;99.90;;;;;;4986660;28;19938;-76
2023/01/31 00:35:04;;;;;;;;;;;3.00;99.90;;;;;;4990256;28;19959;-75
2023/01/31 00:37:30;;;;;;;;;;;3.00;99.90;;;;;;4989976;28;19929;-77
2023/01/31 00:39:57;;;;;;;;;;;3.00;99.80;;;;;;4983369;28;19933;-77
2023/01/31 00:42:23;;;;;;;;;;;3.00;99.80;;;;;;4990404;28;20458;-76
2023/01/31 00:44:51;;;;;;;;;;;3.00;99.80;;;;;;4988088;28;20418;-77
2023/01/31 00:47:18;;;;;;;;;;;3.00;99.80;;;;;;4989748;28;20451;-76
2023/01/31 00:49:44;;;;;;;;;;;3.00;99.80;;;;;;4992961;28;19937;-77
2023/01/31 00:52:11;;;;;;;;;;;3.00;99.80;;;;;;4992864;28;19930;-76
2023/01/31 00:54:38;;;;;;;;;;;3.00;99.80;;;;;;4992128;28;19933;-76
2023/01/31 00:57:05;;;;;;;;;;;3.00;99.80;;;;;;4984733;28;20024;-76
2023/01/31 00:59:31;;;;;;;;;;;3.00;99.70;;;;;;4989717;28;19941;-77
2023/01/31 01:01:59;;;;;;;;;;;3.00;99.70;;;;;;4988159;28;19937;-76
2023/01/31 01:04:26;;;;;;;;;;;3.00;99.70;;;;;;4996150;28;19929;-77
2023/01/31 01:06:52;;;;;;;;;;;3.00;99.70;;;;;;4996742;28;19953;-76
2023/01/31 01:09:19;;;;;;;;;;;3.00;99.70;;;;;;4987591;28;19930;-76
2023/01/31 01:11:45;;;;;;;;;;;3.00;99.80;;;;;;4988851;28;19930;-76
2023/01/31 01:14:12;;;;;;;;;;;3.00;99.80;;;;;;4991230;28;19930;-75
2023/01/31 01:16:39;;;;;;;;;;;3.00;99.80;;;;;;4980184;28;19929;-77
2023/01/31 01:19:08;;;;;;;;;;;3.00;99.80;;;;;;4985158;28;21151;-78
2023/01/31 01:21:37;;;;;;;;;;;3.00;99.80;;;;;;4986341;28;19936;-77
2023/01/31 01:24:05;;;;;;;;;;;3.00;99.70;;;;;;4986695;28;19964;-75
2023/01/31 01:26:32;;;;;;;;;;;3.00;99.70;;;;;;4983596;28;20395;-77
2023/01/31 01:28:59;;;;;;;;;;;3.00;99.70;;;;;;4990499;28;20399;-77
2023/01/31 01:31:28;;;;;;;;;;;3.00;99.70;;;;;;4989140;28;19933;-77
2023/01/31 01:33:56;;;;;;;;;;;2.90;99.70;;;;;;4998700;28;19930;-76
2023/01/31 01:36:24;;;;;;;;;;;3.00;99.70;;;;;;4992392;28;19930;-76
2023/01/31 01:38:50;;;;;;;;;;;3.00;99.70;;;;;;4988887;28;19933;-76
2023/01/31 01:41:17;;;;;;;;;;;3.00;99.70;;;;;;4998363;28;19938;-77
2023/01/31 01:43:45;;;;;;;;;;;2.90;99.60;;;;;;4992816;28;19937;-77
2023/01/31 01:46:13;;;;;;;;;;;3.00;99.70;;;;;;4996278;28;19936;-77
2023/01/31 01:48:40;;;;;;;;;;;2.90;99.70;;;;;;4991949;28;19936;-77
2023/01/31 01:51:07;;;;;;;;;;;3.00;99.70;;;;;;4993144;28;19948;-76
2023/01/31 01:53:39;;;;;;;;;;;2.90;99.70;;;;;;4995484;28;19929;-77
2023/01/31 01:56:08;;;;;;;;;;;2.90;99.70;;;;;;4985864;28;20007;-75
2023/01/31 01:58:37;;;;;;;;;;;2.90;99.60;;;;;;4993033;28;19933;-75
2023/01/31 02:01:05;;;;;;;;;;;2.90;99.70;;;;;;4994053;28;19976;-77
2023/01/31 02:03:32;;;;;;;;;;;2.90;99.70;;;;;;4990054;28;19961;-76
2023/01/31 02:06:00;;;;;;;;;;;2.90;99.70;;;;;;4992702;28;19933;-76
2023/01/31 02:08:29;;;;;;;;;;;2.90;99.60;;;;;;4995584;28;19991;-76
2023/01/31 02:10:58;;;;;;;;;;;2.90;99.60;;;;;;4997432;28;19929;-76
2023/01/31 02:13:25;;;;;;;;;;;2.90;99.60;;;;;;4978530;28;19933;-78
2023/01/31 02:15:52;;;;;;;;;;;2.90;99.70;;;;;;4991461;28;19972;-76
2023/01/31 02:18:19;;;;;;;;;;;2.90;99.70;;;;;;4985863;28;19933;-77
2023/01/31 02:20:59;;;;;;;;;;;2.90;99.70;;;;;;4999954;28;19937;-77
2023/01/31 02:23:44;;;;;;;;;;;2.90;99.70;;;;;;4988677;28;19976;-76
2023/01/31 02:26:29;;;;;;;;;;;2.90;99.60;;;;;;4990940;28;19953;-76
2023/01/31 02:29:17;;;;;;;;;;;2.90;99.70;;;;;;4991482;28;19937;-76
2023/01/31 02:31:59;;;;;;;;;;;2.90;99.70;;;;;;4982919;28;19933;-76
2023/01/31 02:34:32;;;;;;;;;;;2.90;99.70;;;;;;4992574;28;19934;-77
2023/01/31 02:37:04;;;;;;;;;;;2.90;99.70;;;;;;4991674;28;19925;-77
2023/01/31 02:39:37;;;;;;;;;;;2.90;99.70;;;;;;4984929;28;19934;-76
2023/01/31 02:42:07;;;;;;;;;;;2.80;99.60;;;;;;4986884;28;19933;-77
2023/01/31 02:47:25;;;;;;;;;;;2.80;99.60;;;;;;4990988;28;19933;-76
2023/01/31 02:49:54;;;;;;;;;;;2.80;99.60;;;;;;4992321;28;19999;-76
2023/01/31 02:52:22;;;;;;;;;;;2.80;99.60;;;;;;4993509;28;20351;-76
2023/01/31 02:57:38;;;;;;;;;;;2.80;99.60;;;;;;4988343;28;20377;-76
2023/01/31 03:00:06;;;;;;;;;;;2.80;99.60;;;;;;4989070;28;20413;-75
2023/01/31 03:02:32;;;;;;;;;;;2.80;99.60;;;;;;4989209;28;19930;-76
2023/01/31 03:05:00;;;;;;;;;;;2.80;99.60;;;;;;4989393;28;19988;-76
2023/01/31 03:07:30;;;;;;;;;;;2.80;99.60;;;;;;4986930;28;19934;-77
2023/01/31 03:10:01;;;;;;;;;;;2.80;99.60;;;;;;4987210;28;19977;-77
2023/01/31 03:12:32;;;;;;;;;;;2.80;99.60;;;;;;4991647;28;20494;-76
2023/01/31 03:15:09;;;;;;;;;;;2.80;99.60;;;;;;4992937;28;19933;-77
2023/01/31 03:17:40;;;;;;;;;;;2.80;99.60;;;;;;4987398;28;19929;-77
2023/01/31 03:20:09;;;;;;;;;;;2.80;99.70;;;;;;4986124;28;19980;-76
2023/01/31 03:22:38;;;;;;;;;;;2.80;99.70;;;;;;4985447;28;19929;-76
2023/01/31 03:25:06;;;;;;;;;;;2.70;99.70;;;;;;4991280;28;19937;-76
2023/01/31 03:27:33;;;;;;;;;;;2.70;99.70;;;;;;4993302;28;19933;-76
2023/01/31 03:30:03;;;;;;;;;;;2.70;99.70;;;;;;4990354;28;20410;-76
2023/01/31 03:32:31;;;;;;;;;;;2.70;99.70;;;;;;4988140;28;20403;-78
2023/01/31 03:34:58;;;;;;;;;;;2.70;99.70;;;;;;4989542;28;21480;-76
2023/01/31 03:37:30;;;;;;;;;;;2.70;99.70;;;;;;4998752;28;19969;-76
2023/01/31 03:39:59;;;;;;;;;;;2.70;99.70;;;;;;4990854;28;19934;-76
2023/01/31 03:42:30;;;;;;;;;;;2.70;99.80;;;;;;4992736;28;19944;-77
2023/01/31 03:44:59;;;;;;;;;;;2.70;99.80;;;;;;4990624;28;19929;-76
2023/01/31 03:47:27;;;;;;;;;;;2.60;99.70;;;;;;4986215;28;19929;-76
2023/01/31 03:49:55;;;;;;;;;;;2.60;99.70;;;;;;4989920;28;19930;-76
2023/01/31 03:52:26;;;;;;;;;;;2.60;99.70;;;;;;4987191;28;19968;-76
2023/01/31 03:54:58;;;;;;;;;;;2.60;99.70;;;;;;4985705;28;19937;-76
2023/01/31 03:57:26;;;;;;;;;;;2.60;99.70;;;;;;4986495;28;20406;-76
2023/01/31 03:59:55;;;;;;;;;;;2.60;99.70;;;;;;4980599;28;19933;-76
2023/01/31 04:02:23;;;;;;;;;;;2.60;99.70;;;;;;4982558;28;19934;-76
2023/01/31 04:04:51;;;;;;;;;;;2.60;99.70;;;;;;4989161;28;20016;-77
2023/01/31 04:07:18;;;;;;;;;;;2.60;99.70;;;;;;4987298;28;19934;-76
2023/01/31 04:09:44;;;;;;;;;;;2.50;99.70;;;;;;4986504;28;20320;-76
2023/01/31 04:12:13;;;;;;;;;;;2.50;99.70;;;;;;4987953;28;19937;-77
2023/01/31 04:14:40;;;;;;;;;;;2.50;99.70;;;;;;4988407;28;19929;-76
2023/01/31 04:17:07;;;;;;;;;;;2.50;99.70;;;;;;4988040;28;19934;-75
2023/01/31 04:19:33;;;;;;;;;;;2.50;99.80;;;;;;4991275;28;19930;-77
2023/01/31 04:22:00;;;;;;;;;;;2.50;99.80;;;;;;4991008;28;19934;-77
2023/01/31 04:24:26;;;;;;;;;;;2.50;99.80;;;;;;4984738;28;20533;-76
2023/01/31 04:26:53;;;;;;;;;;;2.50;99.80;;;;;;4984626;28;19934;-75
2023/01/31 04:29:21;;;;;;;;;;;2.40;99.90;;;;;;4988720;28;19933;-77
2023/01/31 04:31:47;;;;;;;;;;;2.40;99.90;;;;;;4991195;28;20311;-76
2023/01/31 04:34:14;;;;;;;;;;;2.40;99.90;;;;;;4985878;28;20027;-76
2023/01/31 04:36:40;;;;;;;;;;;2.40;99.90;;;;;;4990635;28;19929;-76
2023/01/31 04:39:07;;;;;;;;;;;2.40;99.90;;;;;;4987923;28;19938;-76
2023/01/31 04:41:33;;;;;;;;;;;2.40;99.90;;;;;;4982309;28;19949;-76
2023/01/31 04:44:00;;;;;;;;;;;2.40;99.90;;;;;;4985979;28;20359;-76
2023/01/31 04:46:28;;;;;;;;;;;2.40;99.90;;;;;;4990216;28;20443;-77
2023/01/31 04:48:54;;;;;;;;;;;2.40;99.90;;;;;;4983105;28;20702;-76
2023/01/31 04:51:21;;;;;;;;;;;2.40;99.90;;;;;;5001151;28;19930;-77
2023/01/31 04:53:47;;;;;;;;;;;2.40;99.90;;;;;;4996285;28;19977;-76
2023/01/31 04:56:14;;;;;;;;;;;2.40;99.90;;;;;;4985423;28;19930;-76
2023/01/31 04:58:42;;;;;;;;;;;2.40;99.90;;;;;;4993983;28;19972;-76
2023/01/31 05:01:08;;;;;;;;;;;2.30;99.90;;;;;;4994927;28;20415;-76
2023/01/31 05:03:36;;;;;;;;;;;2.40;99.90;;;;;;4989086;28;20443;-77
2023/01/31 05:06:03;;;;;;;;;;;2.30;99.90;;;;;;4991569;28;20296;-77
2023/01/31 05:08:30;;;;;;;;;;;2.30;99.90;;;;;;4994752;28;20007;-76
2023/01/31 05:10:57;;;;;;;;;;;2.30;99.90;;;;;;4993551;28;20505;-76
2023/01/31 05:13:24;;;;;;;;;;;2.30;99.90;;;;;;4997727;28;19984;-76
2023/01/31 05:15:50;;;;;;;;;;;2.30;99.90;;;;;;4992599;28;20070;-76
2023/01/31 05:18:17;;;;;;;;;;;2.30;99.90;;;;;;4987585;28;19933;-77
2023/01/31 05:20:45;;;;;;;;;;;2.30;99.90;;;;;;4995130;28;19929;-76
2023/01/31 05:23:12;;;;;;;;;;;2.30;99.90;;;;;;4990436;28;19933;-77
2023/01/31 05:25:38;;;;;;;;;;;2.30;99.90;;;;;;4990969;28;19936;-75
2023/01/31 05:28:05;;;;;;;;;;;2.20;99.90;;;;;;4989311;28;19933;-76
2023/01/31 05:30:33;;;;;;;;;;;2.20;99.90;;;;;;4987937;28;20622;-76
2023/01/31 05:33:00;;;;;;;;;;;2.20;99.90;;;;;;4989601;28;19992;-76
2023/01/31 05:35:27;;;;;;;;;;;2.20;99.90;;;;;;4994107;28;20000;-76
2023/01/31 05:37:55;;;;;;;;;;;2.20;99.90;;;;;;4989217;28;19930;-77
2023/01/31 05:40:21;;;;;;;;;;;2.20;99.90;;;;;;4991825;28;20427;-77
2023/01/31 05:42:50;;;;;;;;;;;2.20;99.90;;;;;;4982642;28;20171;-76
2023/01/31 05:45:16;;;;;;;;;;;2.20;99.90;;;;;;4992275;28;20137;-76
2023/01/31 05:47:45;;;;;;;;;;;2.10;99.90;;;;;;4988256;28;19929;-75
2023/01/31 05:50:12;;;;;;;;;;;2.20;99.90;;;;;;4991890;28;20289;-76
2023/01/31 05:52:38;;;;;;;;;;;2.10;99.90;;;;;;4996220;28;20454;-76
2023/01/31 05:55:07;;;;;;;;;;;2.10;99.90;;;;;;4991842;28;19930;-78
2023/01/31 05:57:33;;;;;;;;;;;2.10;99.90;;;;;;4985876;28;19937;-76
2023/01/31 06:00:00;;;;;;;;;;;2.10;99.90;;;;;;4993804;28;19984;-76
2023/01/31 06:02:27;;;;;;;;;;;2.10;99.90;;;;;;4989693;28;20016;-76
2023/01/31 06:04:53;;;;;;;;;;;2.10;99.90;;;;;;4994376;28;20470;-75
2023/01/31 06:07:21;;;;;;;;;;;2.10;99.90;;;;;;4992986;28;20373;-76
2023/01/31 06:09:48;;;;;;;;;;;2.10;99.90;;;;;;4984079;28;19973;-76
2023/01/31 06:12:16;;;;;;;;;;;2.10;99.90;;;;;;4986525;28;20333;-77
2023/01/31 06:14:43;;;;;;;;;;;2.10;99.90;;;;;;4985349;28;20215;-77
2023/01/31 06:17:09;;;;;;;;;;;2.10;99.90;;;;;;4985667;28;19930;-78
2023/01/31 06:19:37;;;;;;;;;;;2.10;99.90;;;;;;4988836;28;19937;-77
2023/01/31 06:22:04;;;;;;;;;;;2.10;99.90;;;;;;4986670;28;19936;-78
2023/01/31 06:24:30;;;;;;;;;;;2.00;99.90;;;;;;4994458;28;20321;-77
2023/01/31 06:26:57;;;;;;;;;;;2.10;99.90;;;;;;4994543;28;19930;-76
2023/01/31 06:29:25;;;;;;;;;;;2.00;99.90;;;;;;4993965;28;19933;-75
2023/01/31 06:31:52;;;;;;;;;;;2.00;99.90;;;;;;4993795;28;19957;-76
2023/01/31 06:34:19;;;;;;;;;;;2.10;99.90;;;;;;4994139;28;20683;-76
2023/01/31 06:36:45;;;;;;;;;;;2.00;99.90;;;;;;4998235;28;19937;-78
2023/01/31 06:39:12;;;;;;;;;;;2.00;99.90;;;;;;4998933;28;19933;-73
2023/01/31 06:41:39;;;;;;;;;;;2.00;99.90;;;;;;4996493;28;19988;-75
2023/01/31 06:44:05;;;;;;;;;;;2.00;99.90;;;;;;4983094;28;19929;-74
2023/01/31 06:46:34;;;;;;;;;;;2.00;99.90;;;;;;4989937;28;19952;-75
2023/01/31 06:49:00;;;;;;;;;;;2.00;99.90;;;;;;4990829;28;20363;-76
2023/01/31 06:51:27;;;;;;;;;;;2.00;99.90;;;;;;5000455;28;20300;-74
2023/01/31 06:53:55;;;;;;;;;;;2.00;99.90;;;;;;4997119;28;19930;-75
2023/01/31 06:56:21;;;;;;;;;;;2.00;99.90;;;;;;4990159;28;19930;-75
2023/01/31 06:58:48;;;;;;;;;;;2.00;99.90;;;;;;4993535;28;20523;-74
2023/01/31 07:01:15;;;;;;;;;;;2.00;99.90;;;;;;4994562;28;19936;-74
2023/01/31 07:03:43;;;;;;;;;;;2.00;99.90;;;;;;4992968;28;20567;-74
2023/01/31 07:06:10;;;;;;;;;;;2.10;99.90;;;;;;4982025;28;19929;-74
2023/01/31 07:08:37;;;;;;;;;;;2.00;99.90;;;;;;4991823;28;20482;-75
2023/01/31 07:11:04;;;;;;;;;;;2.00;99.90;;;;;;4994113;28;19937;-74
2023/01/31 07:13:31;;;;;;;;;;;2.10;99.90;;;;;;4999452;28;19941;-74
2023/01/31 07:15:58;;;;;;;;;;;2.00;99.90;;;;;;4979728;28;19930;-74
2023/01/31 07:18:24;;;;;;;;;;;2.10;99.90;;;;;;4986371;28;20419;-74
2023/01/31 07:20:52;;;;;;;;;;;2.10;99.90;;;;;;4991013;28;19932;-74
2023/01/31 07:23:19;;;;;;;;;;;2.10;99.90;;;;;;4987801;28;19934;-74
2023/01/31 07:25:46;;;;;;;;;;;2.10;99.90;;;;;;4989552;28;19941;-74
2023/01/31 07:28:12;;;;;;;;;;;2.10;99.90;;;;;;4983745;28;19933;-74
2023/01/31 07:30:42;;;;;;;;;;;2.10;99.90;;;;;;4985552;28;19936;-74
2023/01/31 07:33:09;;;;;;;;;;;2.10;99.90;;;;;;4986979;28;19930;-74
2023/01/31 07:35:35;;;;;;;;;;;2.10;99.90;;;;;;4990918;28;20009;-73
2023/01/31 07:38:03;;;;;;;;;;;2.10;99.90;;;;;;4990498;28;19976;-77
2023/01/31 07:40:30;;;;;;;;;;;2.10;99.90;;;;;;4988063;28;19937;-77
2023/01/31 07:42:58;;;;;;;;;;;2.10;99.90;;;;;;4985342;28;19952;-78
2023/01/31 07:45:24;;;;;;;;;;;2.10;99.90;;;;;;4994770;28;20404;-78
2023/01/31 07:47:51;;;;;;;;;;;2.10;99.90;;;;;;4993507;28;20665;-77
2023/01/31 07:50:17;;;;;;;;;;;2.10;99.90;;;;;;4987129;28;19929;-77
2023/01/31 07:52:44;;;;;;;;;;;2.10;99.90;;;;;;4993934;28;19929;-78
2023/01/31 07:55:12;;;;;;;;;;;2.10;99.90;;;;;;4994733;28;19930;-76
2023/01/31 07:57:38;;;;;;;;;;;2.10;99.90;;;;;;4989786;28;19936;-78
2023/01/31 08:03:31;;;;;;;;;;;2.20;99.90;;;;;;4988194;28;19930;-77
2023/01/31 08:05:37;;;;;;;;;;;2.20;99.90;;;;;;4991535;28;20300;-78
2023/01/31 08:08:10;;;;;;;;;;;2.20;99.90;;;;;;4989381;28;19934;-78
2023/01/31 08:10:37;;;;;;;;;;;2.20;99.90;;;;;;4989924;28;20550;-78
2023/01/31 08:13:05;;;;;;;;;;;2.20;99.90;;;;;;4983914;28;19933;-77
2023/01/31 08:15:31;;;;;;;;;;;2.20;99.90;;;;;;4987469;28;20048;-76
2023/01/31 08:17:58;;;;;;;;;;;2.20;99.90;;;;;;4990105;28;20047;-77
2023/01/31 08:20:24;;;;;;;;;;;2.20;99.90;;;;;;4990099;28;19941;-77
2023/01/31 08:22:51;;;;;;;;;;;2.20;99.90;;;;;;4989051;28;20016;-77
2023/01/31 08:25:17;;;;;;;;;;;2.20;99.90;;;;;;4990756;28;20400;-77
2023/01/31 08:27:45;;;;;;;;;;;2.20;99.90;;;;;;4992885;28;19933;-78
2023/01/31 08:30:12;;;;;;;;;;;2.20;99.90;;;;;;4990941;28;19992;-77
2023/01/31 08:32:39;;;;;;;;;;;2.20;99.90;;;;;;4985493;28;20354;-76
2023/01/31 08:35:06;;;;;;;;;;;2.30;99.90;;;;;;4986716;28;19936;-77
2023/01/31 08:37:34;;;;;;;;;;;2.30;99.90;;;;;;4992992;28;19933;-77
2023/01/31 08:40:01;;;;;;;;;;;2.20;99.90;;;;;;4992463;28;19945;-77
2023/01/31 08:42:27;;;;;;;;;;;2.30;99.90;;;;;;4984603;28;19953;-77
2023/01/31 08:44:55;;;;;;;;;;;2.30;99.90;;;;;;4983748;28;20480;-77
2023/01/31 08:47:22;;;;;;;;;;;2.20;99.90;;;;;;4982657;28;20348;-76
2023/01/31 08:49:48;;;;;;;;;;;2.20;99.90;;;;;;4985014;28;20643;-77
2023/01/31 08:52:15;;;;;;;;;;;2.30;99.90;;;;;;4988699;28;19933;-76
2023/01/31 08:54:41;;;;;;;;;;;2.30;99.90;;;;;;4993640;28;20483;-77
2023/01/31 08:57:08;;;;;;;;;;;2.30;99.90;;;;;;4986329;28;19976;-77
2023/01/31 08:59:35;;;;;;;;;;;2.30;99.90;;;;;;4992854;28;19937;-76
2023/01/31 09:02:03;;;;;;;;;;;2.30;99.90;;;;;;4988443;28;20451;-76
2023/01/31 09:04:29;;;;;;;;;;;2.30;99.90;;;;;;4991876;28;20355;-77
2023/01/31 09:06:56;;;;;;;;;;;2.30;99.90;;;;;;4988027;28;19937;-77
2023/01/31 09:09:24;;;;;;;;;;;2.30;99.90;;;;;;4986372;28;20600;-77
2023/01/31 09:11:51;;;;;;;;;;;2.30;99.90;;;;;;4988323;28;20410;-77
2023/01/31 09:14:17;;;;;;;;;;;2.30;99.90;;;;;;4984395;28;19929;-76
2023/01/31 09:16:45;;;;;;;;;;;2.40;99.90;;;;;;4984348;28;19934;-79
2023/01/31 09:19:13;;;;;;;;;;;2.40;99.90;;;;;;4989609;28;19933;-75
2023/01/31 09:21:39;;;;;;;;;;;2.40;99.90;;;;;;4984748;28;19937;-76
2023/01/31 09:24:06;;;;;;;;;;;2.40;99.90;;;;;;4988028;28;19937;-77
2023/01/31 09:26:33;;;;;;;;;;;2.40;99.90;;;;;;4987718;28;19930;-78
2023/01/31 09:29:00;;;;;;;;;;;2.50;99.90;;;;;;4988674;28;19933;-76
2023/01/31 09:31:26;;;;;;;;;;;2.50;99.90;;;;;;4985825;28;19948;-76
2023/01/31 09:33:54;;;;;;;;;;;2.50;99.90;;;;;;4984800;28;19938;-77
2023/01/31 09:36:22;;;;;;;;;;;2.50;99.90;;;;;;4993653;28;19934;-76
2023/01/31 09:38:53;;;;;;;;;;;2.50;99.90;;;;;;4985484;28;20031;-77
2023/01/31 09:41:25;;;;;;;;;;;2.50;99.90;;;;;;4986021;28;19936;-77
2023/01/31 09:43:53;;;;;;;;;;;2.50;99.90;;;;;;4984278;28;19992;-77
2023/01/31 09:46:20;;;;;;;;;;;2.50;99.90;;;;;;4992613;28;19930;-78
2023/01/31 09:48:49;;;;;;;;;;;2.60;99.90;;;;;;4984388;28;19930;-77
2023/01/31 09:51:16;;;;;;;;;;;2.50;99.90;;;;;;4999226;28;19999;-76
2023/01/31 09:53:44;;;;;;;;;;;2.60;99.90;;;;;;4996813;28;19930;-77
2023/01/31 09:56:19;;;;;;;;;;;2.50;99.90;;;;;;4988012;28;20406;-75
2023/01/31 09:58:52;;;;;;;;;;;2.50;99.90;;;;;;4990322;28;19936;-77
2023/01/31 10:01:23;;;;;;;;;;;2.60;99.90;;;;;;4993448;28;20348;-76
2023/01/31 10:03:58;;;;;;;;;;;2.60;99.90;;;;;;4990050;28;19930;-79
2023/01/31 10:06:27;;;;;;;;;;;2.60;99.90;;;;;;4994913;28;19930;-78
2023/01/31 10:08:58;;;;;;;;;;;2.60;99.90;;;;;;4994580;28;19937;-77
2023/01/31 10:11:28;;;;;;;;;;;2.70;99.90;;;;;;4990391;28;20684;-77
2023/01/31 10:13:58;;;;;;;;;;;2.70;99.90;;;;;;4986906;28;20025;-77
2023/01/31 10:16:27;;;;;;;;;;;2.70;99.80;;;;;;4984247;28;19934;-77
2023/01/31 10:18:56;;;;;;;;;;;2.70;99.70;;;;;;4990014;28;19957;-77
2023/01/31 10:21:25;;;;;;;;;;;2.70;99.70;;;;;;4999032;28;20511;-76
2023/01/31 10:23:54;;;;;;;;;;;2.80;99.70;;;;;;4990672;28;19937;-77
2023/01/31 10:26:23;;;;;;;;;;;2.80;99.60;;;;;;4998206;28;19937;-76
2023/01/31 10:28:55;;;;;;;;;;;2.80;99.60;;;;;;4983800;28;20590;-78
2023/01/31 10:31:26;;;;;;;;;;;2.90;99.60;;;;;;4994162;28;19945;-77
2023/01/31 10:33:55;;;;;;;;;;;2.90;99.50;;;;;;4987637;28;20343;-77
2023/01/31 10:36:24;;;;;;;;;;;2.90;99.50;;;;;;4988958;28;19940;-77
2023/01/31 10:38:55;;;;;;;;;;;2.90;99.40;;;;;;4990588;28;20473;-77
2023/01/31 10:41:27;;;;;;;;;;;3.00;99.40;;;;;;4992119;28;19933;-78
2023/01/31 10:43:59;;;;;;;;;;;3.00;99.30;;;;;;4991828;28;20389;-77
2023/01/31 10:46:26;;;;;;;;;;;3.10;99.20;;;;;;4992972;28;19934;-77
2023/01/31 10:48:53;;;;;;;;;;;3.10;99.10;;;;;;4986575;28;19929;-76
2023/01/31 10:51:28;;;;;;;;;;;3.10;99.00;;;;;;4999107;28;19961;-78
2023/01/31 10:54:06;;;;;;;;;;;3.10;99.00;;;;;;4994653;28;19929;-76
2023/01/31 10:56:35;;;;;;;;;;;3.20;99.00;;;;;;4989652;28;19929;-77
2023/01/31 10:59:05;;;;;;;;;;;3.30;99.00;;;;;;4987811;28;19941;-78
2023/01/31 11:01:31;;;;;;;;;;;3.30;98.90;;;;;;4993084;28;20017;-77
2023/01/31 11:03:59;;;;;;;;;;;3.40;98.80;;;;;;4994006;28;19940;-77
2023/01/31 11:06:26;;;;;;;;;;;3.40;98.70;;;;;;4995919;28;19930;-78
2023/01/31 11:08:55;;;;;;;;;;;3.50;98.50;;;;;;4993458;28;19937;-78
2023/01/31 11:11:22;;;;;;;;;;;3.60;98.30;;;;;;4990602;28;19937;-77
2023/01/31 11:13:57;;;;;;;;;;;3.60;98.20;;;;;;4986058;28;19937;-77
2023/01/31 11:16:25;;;;;;;;;;;3.60;98.10;;;;;;4980687;28;19937;-77
2023/01/31 11:18:52;;;;;;;;;;;3.60;97.90;;;;;;4983208;28;19946;-77
2023/01/31 11:21:20;;;;;;;;;;;3.70;97.90;;;;;;4995159;28;19930;-78
2023/01/31 11:23:46;;;;;;;;;;;3.70;97.80;;;;;;4990808;28;19930;-79
2023/01/31 11:26:14;;;;;;;;;;;3.60;97.80;;;;;;4987841;28;19937;-77
2023/01/31 11:28:41;;;;;;;;;;;3.70;97.80;;;;;;4988579;28;19936;-77
2023/01/31 11:31:17;;;;;;;;;;;3.70;97.80;;;;;;4987627;28;20351;-77
2023/01/31 11:33:46;;;;;;;;;;;3.60;97.70;;;;;;4984089;28;19934;-77
2023/01/31 11:36:13;;;;;;;;;;;3.60;97.70;;;;;;4985817;28;19930;-76
2023/01/31 11:38:40;;;;;;;;;;;3.60;97.60;;;;;;4996391;28;19938;-77
2023/01/31 11:41:30;;;;;;;;;;;3.60;97.60;;;;;;4994784;28;19937;-77
2023/01/31 11:44:07;;;;;;;;;;;3.60;97.60;;;;;;4989123;28;19929;-77
2023/01/31 11:46:40;;;;;;;;;;;3.60;97.70;;;;;;4990646;28;19929;-77
2023/01/31 11:49:10;;;;;;;;;;;3.60;97.70;;;;;;4981276;28;19930;-77
2023/01/31 11:51:39;;;;;;;;;;;3.60;97.70;;;;;;4988276;28;19935;-77
2023/01/31 11:54:06;;;;;;;;;;;3.60;97.70;;;;;;4988699;28;20032;-77
2023/01/31 11:56:34;;;;;;;;;;;3.60;97.80;;;;;;4991011;28;19980;-77
2023/01/31 11:59:04;;;;;;;;;;;3.60;97.80;;;;;;4986741;28;20362;-77
2023/01/31 12:01:31;;;;;;;;;;;3.60;97.70;;;;;;4993683;28;19933;-77
2023/01/31 12:04:02;;;;;;;;;;;3.60;97.60;;;;;;4994229;28;19952;-77
2023/01/31 12:06:31;;;;;;;;;;;3.70;97.50;;;;;;4991678;28;19930;-75
2023/01/31 12:08:59;;;;;;;;;;;3.70;97.50;;;;;;4982448;28;19940;-77
2023/01/31 12:11:28;;;;;;;;;;;3.70;97.40;;;;;;4990626;28;19930;-81
2023/01/31 12:14:00;;;;;;;;;;;3.70;97.40;;;;;;4989394;28;19949;-78
2023/01/31 12:16:29;;;;;;;;;;;3.70;97.40;;;;;;4987743;28;20319;-79
2023/01/31 12:19:03;;;;;;;;;;;3.70;97.30;;;;;;4986397;28;19938;-76
2023/01/31 12:21:38;;;;;;;;;;;3.70;97.30;;;;;;4987153;28;20396;-78
2023/01/31 12:24:13;;;;;;;;;;;3.70;97.30;;;;;;4988862;28;19963;-78
2023/01/31 12:26:43;;;;;;;;;;;3.70;97.30;;;;;;4982890;28;20431;-77
2023/01/31 12:29:16;;;;;;;;;;;3.70;97.30;;;;;;4988046;28;19976;-77
2023/01/31 12:31:52;;;;;;;;;;;3.70;97.20;;;;;;4984195;28;19933;-77
2023/01/31 12:34:25;;;;;;;;;;;3.70;97.20;;;;;;4988829;28;19937;-78
2023/01/31 12:37:00;;;;;;;;;;;3.70;97.20;;;;;;4986957;28;19934;-79
2023/01/31 12:39:37;;;;;;;;;;;3.70;97.20;;;;;;4981331;28;19940;-77
2023/01/31 12:42:09;;;;;;;;;;;3.70;97.10;;;;;;4985513;28;20478;-77
2023/01/31 12:44:43;;;;;;;;;;;3.80;97.10;;;;;;4981751;28;20339;-77
2023/01/31 12:47:20;;;;;;;;;;;3.80;97.10;;;;;;4988143;28;19933;-77
2023/01/31 12:49:57;;;;;;;;;;;3.80;97.10;;;;;;4987400;28;19929;-76
2023/01/31 12:52:27;;;;;;;;;;;3.80;97.10;;;;;;4992476;28;20044;-77
2023/01/31 12:55:01;;;;;;;;;;;3.80;97.10;;;;;;4990009;28;19929;-77
2023/01/31 12:57:32;;;;;;;;;;;3.80;97.10;;;;;;4984920;28;19958;-77
2023/01/31 13:00:03;;;;;;;;;;;3.80;97.00;;;;;;4986176;28;19934;-77
2023/01/31 13:02:35;;;;;;;;;;;3.80;97.00;;;;;;4992004;28;19940;-77
2023/01/31 13:05:07;;;;;;;;;;;3.80;96.90;;;;;;4990027;28;20004;-77
2023/01/31 13:07:35;;;;;;;;;;;3.80;96.90;;;;;;4995101;28;20494;-77
2023/01/31 13:10:04;;;;;;;;;;;3.80;96.70;;;;;;4991026;28;20442;-78
2023/01/31 13:12:33;;;;;;;;;;;3.80;96.70;;;;;;4994659;28;19930;-77
2023/01/31 13:15:03;;;;;;;;;;;3.90;96.80;;;;;;4986821;28;19977;-77
2023/01/31 13:17:31;;;;;;;;;;;3.90;96.80;;;;;;4983213;28;19930;-77
2023/01/31 13:19:58;;;;;;;;;;;3.90;96.70;;;;;;4989070;28;19936;-76
2023/01/31 13:22:28;;;;;;;;;;;3.90;96.70;;;;;;4989120;28;19976;-76
2023/01/31 13:24:59;;;;;;;;;;;3.90;96.60;;;;;;4987607;28;20422;-77
2023/01/31 13:27:27;;;;;;;;;;;3.90;96.60;;;;;;4990141;28;19930;-77
2023/01/31 13:29:57;;;;;;;;;;;3.90;96.60;;;;;;4990451;28;19944;-77
2023/01/31 13:32:27;;;;;;;;;;;3.90;96.50;;;;;;4992424;28;19969;-77
2023/01/31 13:34:56;;;;;;;;;;;3.90;96.50;;;;;;4994640;28;19977;-77
2023/01/31 13:37:25;;;;;;;;;;;3.90;96.50;;;;;;4993363;28;19933;-77
2023/01/31 13:39:56;;;;;;;;;;;3.90;96.50;;;;;;4993897;28;19977;-79
2023/01/31 13:42:22;;;;;;;;;;;3.90;96.50;;;;;;4984512;28;20646;-76
2023/01/31 13:44:49;;;;;;;;;;;3.90;96.50;;;;;;4986163;28;20336;-78
2023/01/31 13:47:18;;;;;;;;;;;4.00;96.40;;;;;;4995702;28;19952;-73
2023/01/31 13:49:48;;;;;;;;;;;3.90;96.30;;;;;;4980214;28;19930;-73
2023/01/31 13:52:17;;;;;;;;;;;4.00;96.30;;;;;;4990790;28;19934;-71
2023/01/31 13:54:47;;;;;;;;;;;4.00;96.30;;;;;;4999263;28;19937;-72
2023/01/31 13:57:23;;;;;;;;;;;4.00;96.30;;;;;;4991879;28;19987;-74
2023/01/31 13:59:52;;;;;;;;;;;4.00;96.30;;;;;;4994348;28;20000;-73
2023/01/31 14:02:19;;;;;;;;;;;4.00;96.20;;;;;;4990485;28;19929;-73
2023/01/31 14:04:46;;;;;;;;;;;4.00;96.20;;;;;;4989519;28;20425;-72
2023/01/31 14:07:14;;;;;;;;;;;4.00;96.10;;;;;;4995507;28;19952;-73
2023/01/31 14:09:43;;;;;;;;;;;4.00;96.10;;;;;;4984309;28;19934;-73
2023/01/31 14:12:31;;;;;;;;;;;4.00;96.00;;;;;;4995135;28;19992;-73
2023/01/31 14:14:58;;;;;;;;;;;4.00;96.10;;;;;;4986960;28;19930;-74
2023/01/31 14:17:39;;;;;;;;;;;4.00;96.10;;;;;;4987791;28;19934;-74
2023/01/31 14:20:07;;;;;;;;;;;4.00;96.00;;;;;;4997449;28;19933;-74
2023/01/31 14:22:34;;;;;;;;;;;4.10;95.90;;;;;;4989081;28;19937;-73
2023/01/31 14:25:02;;;;;;;;;;;4.10;95.90;;;;;;4993001;28;19929;-74
2023/01/31 14:27:36;;;;;;;;;;;4.10;95.80;;;;;;4993305;28;20012;-74
2023/01/31 14:30:23;;;;;;;;;;;4.10;95.80;;;;;;4994812;28;19957;-73
2023/01/31 14:33:00;;;;;;;;;;;4.10;95.90;;;;;;4986138;28;19929;-74
2023/01/31 14:35:49;;;;;;;;;;;4.10;95.90;;;;;;4997247;28;21167;-73
2023/01/31 14:38:22;;;;;;;;;;;4.10;95.90;;;;;;4990490;28;19936;-74
2023/01/31 14:40:55;;;;;;;;;;;4.10;95.90;;;;;;4990595;28;19984;-73
2023/01/31 14:43:32;;;;;;;;;;;4.10;95.90;;;;;;4989537;28;19976;-74
2023/01/31 14:46:12;;;;;;;;;;;4.10;95.90;;;;;;4994727;28;20537;-73
2023/01/31 14:48:47;;;;;;;;;;;4.20;95.90;;;;;;4986108;28;20467;-74